sensor_id;sensor_type;location;lat;lon;timestamp;pressure;altitude;pressure_sealevel;temperature;humidity
43217;BME280;60511;42.686;23.300;2023-02-20T00:01:07;95021.69;;;17.99;70.21
43217;BME280;60511;42.686;23.300;2023-02-20T00:03:08;94983.06;;;17.69;71.52
43217;BME280;60511;42.686;23.300;2023-02-20T00:05:11;95016.59;;;17.66;71.76
43217;BME280;60511;42.686;23.300;2023-02-20T00:07:12;95020.47;;;18.05;67.81
43217;BME280;60511;42.686;23.300;2023-02-20T00:09:12;94944.97;;;18.03;65.23
43217;BME280;60511;42.686;23.300;2023-02-20T00:11:13;95005.78;;;19.44;52.49
43217;BME280;60511;42.686;23.300;2023-02-20T00:13:13;95036.47;;;20.16;56.06
43217;BME280;60511;42.686;23.300;2023-02-20T00:15:15;95041.16;;;18.14;71.61
43217;BME280;60511;42.686;23.300;2023-02-20T00:17:16;95035.13;;;18.08;68.53
43217;BME280;60511;42.686;23.300;2023-02-20T00:19:16;95010.66;;;18.32;65.41
43217;BME280;60511;42.686;23.300;2023-02-20T00:21:16;95003.34;;;18.15;71.63
43217;BME280;60511;42.686;23.300;2023-02-20T00:23:17;95041.47;;;18.52;68.25
43217;BME280;60511;42.686;23.300;2023-02-20T00:25:19;95001.06;;;19.50;57.98
43217;BME280;60511;42.686;23.300;2023-02-20T00:27:19;94985.72;;;19.33;62.29
43217;BME280;60511;42.686;23.300;2023-02-20T00:29:21;95045.06;;;18.39;70.05
43217;BME280;60511;42.686;23.300;2023-02-20T00:31:22;94882.53;;;17.85;64.67
43217;BME280;60511;42.686;23.300;2023-02-20T00:33:22;94965.34;;;18.71;60.80
43217;BME280;60511;42.686;23.300;2023-02-20T00:35:24;94994.72;;;19.02;61.90
43217;BME280;60511;42.686;23.300;2023-02-20T00:37:25;94997.88;;;19.74;55.04
43217;BME280;60511;42.686;23.300;2023-02-20T00:39:25;94996.28;;;19.90;56.11
43217;BME280;60511;42.686;23.300;2023-02-20T00:41:25;94963.56;;;19.79;52.73
43217;BME280;60511;42.686;23.300;2023-02-20T00:43:27;94972.88;;;19.91;49.99
43217;BME280;60511;42.686;23.300;2023-02-20T00:45:28;95018.75;;;20.24;53.61
43217;BME280;60511;42.686;23.300;2023-02-20T00:47:28;95029.09;;;20.43;53.21
43217;BME280;60511;42.686;23.300;2023-02-20T00:49:29;94981.31;;;20.10;52.73
43217;BME280;60511;42.686;23.300;2023-02-20T00:51:29;95004.25;;;20.07;54.56
43217;BME280;60511;42.686;23.300;2023-02-20T00:53:31;95060.81;;;20.20;53.52
43217;BME280;60511;42.686;23.300;2023-02-20T00:55:31;94991.41;;;19.66;54.74
43217;BME280;60511;42.686;23.300;2023-02-20T00:57:32;94987.78;;;19.71;55.98
43217;BME280;60511;42.686;23.300;2023-02-20T00:59:32;95040.06;;;19.73;55.57
43217;BME280;60511;42.686;23.300;2023-02-20T01:01:32;95023.06;;;18.68;65.29
43217;BME280;60511;42.686;23.300;2023-02-20T01:03:33;95085.47;;;18.51;64.34
43217;BME280;60511;42.686;23.300;2023-02-20T01:05:33;95069.19;;;18.47;67.26
43217;BME280;60511;42.686;23.300;2023-02-20T01:07:33;94979.00;;;18.43;58.35
43217;BME280;60511;42.686;23.300;2023-02-20T01:09:34;95057.59;;;19.71;57.24
43217;BME280;60511;42.686;23.300;2023-02-20T01:11:34;95037.72;;;19.72;56.04
43217;BME280;60511;42.686;23.300;2023-02-20T01:13:35;95045.66;;;20.15;52.52
43217;BME280;60511;42.686;23.300;2023-02-20T01:15:35;95047.22;;;20.25;52.20
43217;BME280;60511;42.686;23.300;2023-02-20T01:17:36;94931.19;;;19.67;49.83
43217;BME280;60511;42.686;23.300;2023-02-20T01:19:36;95069.22;;;20.65;52.56
43217;BME280;60511;42.686;23.300;2023-02-20T01:21:37;95081.72;;;20.70;46.90
43217;BME280;60511;42.686;23.300;2023-02-20T01:23:37;95019.75;;;20.02;53.44
43217;BME280;60511;42.686;23.300;2023-02-20T01:25:37;95032.75;;;19.91;54.47
43217;BME280;60511;42.686;23.300;2023-02-20T01:27:38;95083.56;;;20.31;52.65
43217;BME280;60511;42.686;23.300;2023-02-20T01:29:38;95052.06;;;19.50;62.58
43217;BME280;60511;42.686;23.300;2023-02-20T01:31:39;95073.09;;;19.74;54.59
43217;BME280;60511;42.686;23.300;2023-02-20T01:33:41;95070.53;;;19.77;55.29
43217;BME280;60511;42.686;23.300;2023-02-20T01:35:41;95077.47;;;20.04;54.48
43217;BME280;60511;42.686;23.300;2023-02-20T01:37:42;95034.63;;;19.99;49.45
43217;BME280;60511;42.686;23.300;2023-02-20T01:39:42;95100.94;;;20.34;55.30
43217;BME280;60511;42.686;23.300;2023-02-20T01:41:43;95098.06;;;20.39;51.38
43217;BME280;60511;42.686;23.300;2023-02-20T01:43:43;95110.78;;;20.21;52.84
43217;BME280;60511;42.686;23.300;2023-02-20T01:45:44;95099.13;;;20.55;53.62
43217;BME280;60511;42.686;23.300;2023-02-20T01:47:45;95059.66;;;20.38;51.42
43217;BME280;60511;42.686;23.300;2023-02-20T01:49:52;95039.09;;;19.86;56.65
43217;BME280;60511;42.686;23.300;2023-02-20T01:52:18;95092.97;;;19.99;57.07
43217;BME280;60511;42.686;23.300;2023-02-20T01:54:21;95062.09;;;18.83;62.59
43217;BME280;60511;42.686;23.300;2023-02-20T01:56:23;95086.47;;;19.39;62.71
43217;BME280;60511;42.686;23.300;2023-02-20T01:58:34;94990.78;;;19.08;57.43
43217;BME280;60511;42.686;23.300;2023-02-20T02:00:36;95122.31;;;19.43;58.55
43217;BME280;60511;42.686;23.300;2023-02-20T02:02:42;95103.94;;;19.10;62.57
43217;BME280;60511;42.686;23.300;2023-02-20T02:04:45;95105.25;;;19.30;58.59
43217;BME280;60511;42.686;23.300;2023-02-20T02:06:49;95100.84;;;20.04;55.74
43217;BME280;60511;42.686;23.300;2023-02-20T02:08:52;95093.78;;;18.18;69.66
43217;BME280;60511;42.686;23.300;2023-02-20T02:11:01;95109.53;;;18.74;66.25
43217;BME280;60511;42.686;23.300;2023-02-20T02:13:02;95119.09;;;18.57;69.92
43217;BME280;60511;42.686;23.300;2023-02-20T02:15:15;95117.59;;;19.66;58.42
43217;BME280;60511;42.686;23.300;2023-02-20T02:20:06;95114.97;;;18.60;68.12
43217;BME280;60511;42.686;23.300;2023-02-20T02:31:47;95126.22;;;18.71;69.26
43217;BME280;60511;42.686;23.300;2023-02-20T02:42:03;95141.69;;;17.75;77.65
43217;BME280;60511;42.686;23.300;2023-02-20T02:48:34;95139.75;;;17.66;77.67
43217;BME280;60511;42.686;23.300;2023-02-20T02:50:36;95128.72;;;17.45;78.30
43217;BME280;60511;42.686;23.300;2023-02-20T02:52:39;95142.78;;;17.51;80.57
43217;BME280;60511;42.686;23.300;2023-02-20T02:54:48;95094.72;;;17.32;79.75
43217;BME280;60511;42.686;23.300;2023-02-20T02:56:49;95091.75;;;17.34;78.48
43217;BME280;60511;42.686;23.300;2023-02-20T02:58:50;95139.25;;;18.01;75.13
43217;BME280;60511;42.686;23.300;2023-02-20T03:01:00;95093.03;;;17.95;75.19
43217;BME280;60511;42.686;23.300;2023-02-20T03:03:23;95128.16;;;19.45;63.35
43217;BME280;60511;42.686;23.300;2023-02-20T03:05:29;95098.78;;;19.31;62.01
43217;BME280;60511;42.686;23.300;2023-02-20T03:07:40;95057.88;;;19.34;56.79
43217;BME280;60511;42.686;23.300;2023-02-20T03:09:56;94996.53;;;18.58;64.25
43217;BME280;60511;42.686;23.300;2023-02-20T03:12:02;95140.19;;;20.00;56.77
43217;BME280;60511;42.686;23.300;2023-02-20T03:14:07;95151.75;;;19.83;59.48
43217;BME280;60511;42.686;23.300;2023-02-20T03:16:36;95109.22;;;19.50;58.33
43217;BME280;60511;42.686;23.300;2023-02-20T03:18:40;95091.34;;;19.37;59.97
43217;BME280;60511;42.686;23.300;2023-02-20T03:20:45;95168.19;;;20.25;56.05
43217;BME280;60511;42.686;23.300;2023-02-20T03:22:57;95134.81;;;20.00;56.27
43217;BME280;60511;42.686;23.300;2023-02-20T03:25:03;95142.22;;;19.42;58.04
43217;BME280;60511;42.686;23.300;2023-02-20T03:27:05;95114.22;;;18.68;67.89
43217;BME280;60511;42.686;23.300;2023-02-20T03:29:20;95171.66;;;19.73;58.23
43217;BME280;60511;42.686;23.300;2023-02-20T03:31:37;95151.34;;;19.32;59.13
43217;BME280;60511;42.686;23.300;2023-02-20T03:36:06;95185.72;;;20.14;57.46
43217;BME280;60511;42.686;23.300;2023-02-20T03:38:26;95186.34;;;20.28;55.43
43217;BME280;60511;42.686;23.300;2023-02-20T03:40:47;95073.53;;;19.50;49.77
43217;BME280;60511;42.686;23.300;2023-02-20T03:43:14;95180.56;;;20.73;47.65
43217;BME280;60511;42.686;23.300;2023-02-20T03:45:27;95123.94;;;20.70;44.36
43217;BME280;60511;42.686;23.300;2023-02-20T03:47:30;95135.72;;;20.86;45.35
43217;BME280;60511;42.686;23.300;2023-02-20T03:49:37;95180.22;;;21.22;43.47
43217;BME280;60511;42.686;23.300;2023-02-20T03:51:40;95157.69;;;21.26;44.09
43217;BME280;60511;42.686;23.300;2023-02-20T03:53:42;95132.19;;;21.03;43.37
43217;BME280;60511;42.686;23.300;2023-02-20T03:55:45;95167.38;;;21.27;43.75
43217;BME280;60511;42.686;23.300;2023-02-20T03:57:49;95160.78;;;21.16;43.72
43217;BME280;60511;42.686;23.300;2023-02-20T03:59:54;95141.47;;;21.14;42.43
43217;BME280;60511;42.686;23.300;2023-02-20T04:02:00;95174.28;;;21.37;41.79
43217;BME280;60511;42.686;23.300;2023-02-20T04:04:03;95085.78;;;20.76;42.11
43217;BME280;60511;42.686;23.300;2023-02-20T04:06:06;95209.31;;;21.67;41.79
43217;BME280;60511;42.686;23.300;2023-02-20T04:08:13;95201.44;;;21.62;40.32
43217;BME280;60511;42.686;23.300;2023-02-20T04:10:21;95152.53;;;21.21;40.72
43217;BME280;60511;42.686;23.300;2023-02-20T04:12:29;95159.91;;;21.33;39.88
43217;BME280;60511;42.686;23.300;2023-02-20T04:14:32;95160.38;;;21.35;39.42
43217;BME280;60511;42.686;23.300;2023-02-20T04:16:38;95173.94;;;21.39;40.28
43217;BME280;60511;42.686;23.300;2023-02-20T04:18:41;95161.84;;;21.24;38.70
43217;BME280;60511;42.686;23.300;2023-02-20T04:20:41;95180.75;;;21.45;39.30
43217;BME280;60511;42.686;23.300;2023-02-20T04:22:44;95153.06;;;21.36;39.64
43217;BME280;60511;42.686;23.300;2023-02-20T04:24:50;95142.38;;;21.27;39.21
43217;BME280;60511;42.686;23.300;2023-02-20T04:26:53;95199.38;;;21.59;38.94
43217;BME280;60511;42.686;23.300;2023-02-20T04:28:54;95212.84;;;21.59;38.28
43217;BME280;60511;42.686;23.300;2023-02-20T04:30:54;95157.06;;;21.30;38.96
43217;BME280;60511;42.686;23.300;2023-02-20T04:32:55;95198.19;;;21.39;37.87
43217;BME280;60511;42.686;23.300;2023-02-20T04:34:55;95172.09;;;21.31;37.66
43217;BME280;60511;42.686;23.300;2023-02-20T04:37:28;95210.69;;;21.73;39.57
43217;BME280;60511;42.686;23.300;2023-02-20T04:39:29;95178.69;;;21.42;39.07
43217;BME280;60511;42.686;23.300;2023-02-20T04:41:29;95192.28;;;21.54;36.08
43217;BME280;60511;42.686;23.300;2023-02-20T04:43:31;95166.06;;;21.34;37.15
43217;BME280;60511;42.686;23.300;2023-02-20T04:45:31;95170.47;;;21.38;38.40
43217;BME280;60511;42.686;23.300;2023-02-20T04:47:39;95176.50;;;21.44;36.81
43217;BME280;60511;42.686;23.300;2023-02-20T04:49:39;95130.69;;;21.14;36.80
43217;BME280;60511;42.686;23.300;2023-02-20T04:51:39;95162.25;;;21.43;36.79
43217;BME280;60511;42.686;23.300;2023-02-20T04:53:40;95205.03;;;21.66;36.07
43217;BME280;60511;42.686;23.300;2023-02-20T04:55:40;95215.16;;;21.69;37.45
43217;BME280;60511;42.686;23.300;2023-02-20T04:57:41;95161.94;;;21.36;38.62
43217;BME280;60511;42.686;23.300;2023-02-20T04:59:41;95221.00;;;21.71;37.42
43217;BME280;60511;42.686;23.300;2023-02-20T05:01:41;95195.59;;;21.51;36.66
43217;BME280;60511;42.686;23.300;2023-02-20T05:03:47;95205.75;;;21.54;36.60
43217;BME280;60511;42.686;23.300;2023-02-20T05:05:47;95206.72;;;21.50;36.67
43217;BME280;60511;42.686;23.300;2023-02-20T05:07:48;95192.78;;;21.39;37.04
43217;BME280;60511;42.686;23.300;2023-02-20T05:09:48;95173.47;;;21.37;36.66
43217;BME280;60511;42.686;23.300;2023-02-20T05:11:49;95158.31;;;21.32;38.62
43217;BME280;60511;42.686;23.300;2023-02-20T05:13:49;95207.00;;;21.57;35.43
43217;BME280;60511;42.686;23.300;2023-02-20T05:15:50;95165.97;;;21.21;36.69
43217;BME280;60511;42.686;23.300;2023-02-20T05:17:50;95242.38;;;21.76;36.59
43217;BME280;60511;42.686;23.300;2023-02-20T05:19:51;95223.34;;;21.52;36.63
43217;BME280;60511;42.686;23.300;2023-02-20T05:21:51;95145.66;;;21.03;35.75
43217;BME280;60511;42.686;23.300;2023-02-20T05:24:10;95252.69;;;21.74;36.63
43217;BME280;60511;42.686;23.300;2023-02-20T05:26:16;95238.16;;;21.66;36.69
43217;BME280;60511;42.686;23.300;2023-02-20T05:28:17;95153.69;;;21.12;35.79
43217;BME280;60511;42.686;23.300;2023-02-20T05:30:18;95117.56;;;20.83;36.51
43217;BME280;60511;42.686;23.300;2023-02-20T05:32:19;95270.44;;;21.75;35.70
43217;BME280;60511;42.686;23.300;2023-02-20T05:34:20;95206.00;;;21.32;36.02
43217;BME280;60511;42.686;23.300;2023-02-20T05:36:21;95236.81;;;21.52;36.66
43217;BME280;60511;42.686;23.300;2023-02-20T05:38:22;95236.00;;;21.51;36.91
43217;BME280;60511;42.686;23.300;2023-02-20T05:40:22;95265.25;;;21.70;36.78
43217;BME280;60511;42.686;23.300;2023-02-20T05:42:22;95240.94;;;21.49;36.76
43217;BME280;60511;42.686;23.300;2023-02-20T05:44:23;95244.75;;;21.48;36.59
43217;BME280;60511;42.686;23.300;2023-02-20T05:46:24;95218.16;;;21.38;36.68
43217;BME280;60511;42.686;23.300;2023-02-20T05:48:26;95234.75;;;21.49;36.72
43217;BME280;60511;42.686;23.300;2023-02-20T05:50:26;95252.94;;;21.60;36.56
43217;BME280;60511;42.686;23.300;2023-02-20T05:52:26;95295.75;;;21.83;36.26
43217;BME280;60511;42.686;23.300;2023-02-20T05:54:27;95291.94;;;21.84;35.97
43217;BME280;60511;42.686;23.300;2023-02-20T05:56:28;95285.44;;;21.85;36.95
43217;BME280;60511;42.686;23.300;2023-02-20T05:58:29;95281.63;;;21.86;36.36
43217;BME280;60511;42.686;23.300;2023-02-20T06:00:29;95292.84;;;21.88;36.57
43217;BME280;60511;42.686;23.300;2023-02-20T06:02:32;95281.28;;;21.87;37.13
43217;BME280;60511;42.686;23.300;2023-02-20T06:04:33;95279.38;;;21.88;36.77
43217;BME280;60511;42.686;23.300;2023-02-20T06:06:39;95278.59;;;21.87;36.43
43217;BME280;60511;42.686;23.300;2023-02-20T06:08:39;95295.56;;;21.88;36.69
43217;BME280;60511;42.686;23.300;2023-02-20T06:10:40;95302.84;;;21.87;36.91
43217;BME280;60511;42.686;23.300;2023-02-20T06:12:40;95311.41;;;21.90;36.92
43217;BME280;60511;42.686;23.300;2023-02-20T06:14:40;95220.06;;;21.46;36.90
43217;BME280;60511;42.686;23.300;2023-02-20T06:16:41;95267.22;;;21.82;37.32
43217;BME280;60511;42.686;23.300;2023-02-20T06:18:42;95306.78;;;21.90;37.34
43217;BME280;60511;42.686;23.300;2023-02-20T06:20:42;95270.91;;;21.77;36.58
43217;BME280;60511;42.686;23.300;2023-02-20T06:22:43;95227.44;;;21.58;35.58
43217;BME280;60511;42.686;23.300;2023-02-20T06:24:46;95294.31;;;21.85;35.44
43217;BME280;60511;42.686;23.300;2023-02-20T06:26:47;95257.47;;;21.69;36.71
43217;BME280;60511;42.686;23.300;2023-02-20T06:28:47;95270.56;;;21.79;37.00
43217;BME280;60511;42.686;23.300;2023-02-20T06:30:49;95237.78;;;21.47;36.44
43217;BME280;60511;42.686;23.300;2023-02-20T06:32:50;95311.81;;;22.00;35.82
43217;BME280;60511;42.686;23.300;2023-02-20T06:34:51;95260.34;;;21.63;37.45
43217;BME280;60511;42.686;23.300;2023-02-20T06:36:51;95247.03;;;21.67;36.99
43217;BME280;60511;42.686;23.300;2023-02-20T06:38:52;95323.66;;;22.08;35.13
43217;BME280;60511;42.686;23.300;2023-02-20T06:40:53;95291.56;;;21.94;35.05
43217;BME280;60511;42.686;23.300;2023-02-20T06:42:53;95203.00;;;21.33;34.75
43217;BME280;60511;42.686;23.300;2023-02-20T06:44:53;95269.44;;;21.80;35.28
43217;BME280;60511;42.686;23.300;2023-02-20T06:46:54;95234.44;;;21.50;35.27
43217;BME280;60511;42.686;23.300;2023-02-20T06:48:56;95319.06;;;22.08;35.30
43217;BME280;60511;42.686;23.300;2023-02-20T06:50:56;95266.63;;;21.76;35.72
43217;BME280;60511;42.686;23.300;2023-02-20T06:52:57;95305.50;;;21.96;34.12
43217;BME280;60511;42.686;23.300;2023-02-20T06:54:57;95293.47;;;21.94;34.59
43217;BME280;60511;42.686;23.300;2023-02-20T06:56:58;95334.13;;;22.10;35.98
43217;BME280;60511;42.686;23.300;2023-02-20T06:59:00;95284.66;;;21.84;34.53
43217;BME280;60511;42.686;23.300;2023-02-20T07:01:01;95207.72;;;21.36;35.79
43217;BME280;60511;42.686;23.300;2023-02-20T07:03:01;95269.13;;;21.81;35.54
43217;BME280;60511;42.686;23.300;2023-02-20T07:05:05;95274.72;;;21.76;34.50
43217;BME280;60511;42.686;23.300;2023-02-20T07:07:05;95329.59;;;22.22;34.50
43217;BME280;60511;42.686;23.300;2023-02-20T07:09:06;95319.66;;;22.14;34.78
43217;BME280;60511;42.686;23.300;2023-02-20T07:11:07;95323.81;;;22.12;35.01
43217;BME280;60511;42.686;23.300;2023-02-20T07:13:07;95239.59;;;21.64;35.00
43217;BME280;60511;42.686;23.300;2023-02-20T07:15:09;95311.44;;;22.11;34.35
43217;BME280;60511;42.686;23.300;2023-02-20T07:17:10;95289.19;;;21.93;34.29
43217;BME280;60511;42.686;23.300;2023-02-20T07:19:11;95296.56;;;22.04;34.04
43217;BME280;60511;42.686;23.300;2023-02-20T07:21:11;95344.03;;;22.26;35.31
43217;BME280;60511;42.686;23.300;2023-02-20T07:23:11;95331.69;;;22.25;35.62
43217;BME280;60511;42.686;23.300;2023-02-20T07:25:13;95332.94;;;22.28;35.48
43217;BME280;60511;42.686;23.300;2023-02-20T07:27:13;95307.09;;;22.18;35.57
43217;BME280;60511;42.686;23.300;2023-02-20T07:29:14;95271.13;;;21.93;35.22
43217;BME280;60511;42.686;23.300;2023-02-20T07:31:14;95305.56;;;22.08;35.94
43217;BME280;60511;42.686;23.300;2023-02-20T07:33:17;95165.16;;;21.30;35.21
43217;BME280;60511;42.686;23.300;2023-02-20T07:35:18;95338.31;;;22.28;35.06
43217;BME280;60511;42.686;23.300;2023-02-20T07:37:18;95331.00;;;22.29;35.49
43217;BME280;60511;42.686;23.300;2023-02-20T07:39:20;95294.06;;;21.99;34.64
43217;BME280;60511;42.686;23.300;2023-02-20T07:41:21;95278.88;;;21.95;35.57
43217;BME280;60511;42.686;23.300;2023-02-20T07:43:23;95259.47;;;21.80;35.15
43217;BME280;60511;42.686;23.300;2023-02-20T07:45:23;95324.88;;;22.19;35.45
43217;BME280;60511;42.686;23.300;2023-02-20T07:47:24;95302.78;;;21.96;34.68
43217;BME280;60511;42.686;23.300;2023-02-20T07:49:25;95268.25;;;21.69;35.53
43217;BME280;60511;42.686;23.300;2023-02-20T07:51:25;95353.25;;;22.25;34.79
43217;BME280;60511;42.686;23.300;2023-02-20T07:53:26;95314.03;;;21.98;35.25
43217;BME280;60511;42.686;23.300;2023-02-20T07:55:26;95266.09;;;21.62;35.53
43217;BME280;60511;42.686;23.300;2023-02-20T07:57:30;95355.28;;;22.29;35.27
43217;BME280;60511;42.686;23.300;2023-02-20T07:59:31;95355.59;;;22.27;35.63
43217;BME280;60511;42.686;23.300;2023-02-20T08:01:32;95355.28;;;22.29;35.32
43217;BME280;60511;42.686;23.300;2023-02-20T08:03:32;95338.53;;;22.14;35.34
43217;BME280;60511;42.686;23.300;2023-02-20T08:05:32;95328.44;;;22.02;35.17
43217;BME280;60511;42.686;23.300;2023-02-20T08:07:33;95316.56;;;22.03;35.24
43217;BME280;60511;42.686;23.300;2023-02-20T08:09:34;95283.72;;;21.80;34.86
43217;BME280;60511;42.686;23.300;2023-02-20T08:11:35;95355.88;;;22.34;35.78
43217;BME280;60511;42.686;23.300;2023-02-20T08:13:36;95364.28;;;22.33;34.59
43217;BME280;60511;42.686;23.300;2023-02-20T08:15:37;95313.47;;;21.93;34.78
43217;BME280;60511;42.686;23.300;2023-02-20T08:17:38;95362.63;;;22.19;34.13
43217;BME280;60511;42.686;23.300;2023-02-20T08:19:39;95369.69;;;22.33;35.45
43217;BME280;60511;42.686;23.300;2023-02-20T08:21:39;95362.28;;;22.30;35.93
43217;BME280;60511;42.686;23.300;2023-02-20T08:23:39;95303.53;;;21.84;35.19
43217;BME280;60511;42.686;23.300;2023-02-20T08:25:40;95336.34;;;22.07;35.08
43217;BME280;60511;42.686;23.300;2023-02-20T08:27:42;95210.88;;;21.38;35.34
43217;BME280;60511;42.686;23.300;2023-02-20T08:29:44;95374.75;;;22.34;34.90
43217;BME280;60511;42.686;23.300;2023-02-20T08:31:45;95348.75;;;22.00;34.95
43217;BME280;60511;42.686;23.300;2023-02-20T08:33:45;95326.09;;;22.01;34.41
43217;BME280;60511;42.686;23.300;2023-02-20T08:35:46;95332.44;;;21.96;34.89
43217;BME280;60511;42.686;23.300;2023-02-20T08:37:49;95313.00;;;21.91;35.03
43217;BME280;60511;42.686;23.300;2023-02-20T08:39:49;95223.22;;;21.39;34.92
43217;BME280;60511;42.686;23.300;2023-02-20T08:41:49;95359.13;;;22.27;34.56
43217;BME280;60511;42.686;23.300;2023-02-20T08:43:50;95350.97;;;22.36;33.54
43217;BME280;60511;42.686;23.300;2023-02-20T08:45:50;95358.72;;;22.38;34.75
43217;BME280;60511;42.686;23.300;2023-02-20T08:47:51;95361.63;;;22.54;34.33
43217;BME280;60511;42.686;23.300;2023-02-20T08:49:51;95342.00;;;22.65;33.27
43217;BME280;60511;42.686;23.300;2023-02-20T08:51:53;95363.28;;;23.00;32.80
43217;BME280;60511;42.686;23.300;2023-02-20T08:53:54;95303.44;;;22.65;31.53
43217;BME280;60511;42.686;23.300;2023-02-20T08:55:54;95331.66;;;22.67;32.00
43217;BME280;60511;42.686;23.300;2023-02-20T08:57:55;95274.19;;;22.34;31.95
43217;BME280;60511;42.686;23.300;2023-02-20T08:59:55;95366.09;;;22.71;31.74
43217;BME280;60511;42.686;23.300;2023-02-20T09:01:56;95297.69;;;22.33;32.12
43217;BME280;60511;42.686;23.300;2023-02-20T09:03:56;95305.97;;;22.28;32.42
43217;BME280;60511;42.686;23.300;2023-02-20T09:05:56;95300.47;;;22.16;32.60
43217;BME280;60511;42.686;23.300;2023-02-20T09:07:57;95297.41;;;22.26;32.41
43217;BME280;60511;42.686;23.300;2023-02-20T09:09:57;95300.25;;;22.21;32.66
43217;BME280;60511;42.686;23.300;2023-02-20T09:11:57;95329.09;;;22.29;32.59
43217;BME280;60511;42.686;23.300;2023-02-20T09:13:58;95326.41;;;22.29;33.22
43217;BME280;60511;42.686;23.300;2023-02-20T09:15:58;95332.84;;;22.37;33.50
43217;BME280;60511;42.686;23.300;2023-02-20T09:17:59;95296.06;;;22.11;32.83
43217;BME280;60511;42.686;23.300;2023-02-20T09:19:59;95363.66;;;22.57;33.00
43217;BME280;60511;42.686;23.300;2023-02-20T09:22:00;95343.22;;;22.56;33.28
43217;BME280;60511;42.686;23.300;2023-02-20T09:24:01;95295.25;;;22.11;33.23
43217;BME280;60511;42.686;23.300;2023-02-20T09:26:03;95350.25;;;22.48;33.34
43217;BME280;60511;42.686;23.300;2023-02-20T09:28:04;95329.75;;;22.26;33.15
43217;BME280;60511;42.686;23.300;2023-02-20T09:30:05;95383.69;;;22.56;33.07
43217;BME280;60511;42.686;23.300;2023-02-20T09:32:06;95328.78;;;22.31;32.85
43217;BME280;60511;42.686;23.300;2023-02-20T09:34:06;95334.00;;;22.36;32.67
43217;BME280;60511;42.686;23.300;2023-02-20T09:36:07;95314.84;;;22.29;32.46
43217;BME280;60511;42.686;23.300;2023-02-20T09:38:07;95347.94;;;22.38;33.01
43217;BME280;60511;42.686;23.300;2023-02-20T09:40:08;95363.97;;;22.55;33.24
43217;BME280;60511;42.686;23.300;2023-02-20T09:44:26;95356.69;;;22.56;32.65
43217;BME280;60511;42.686;23.300;2023-02-20T09:46:29;95354.66;;;22.53;33.29
43217;BME280;60511;42.686;23.300;2023-02-20T09:51:00;95374.00;;;22.55;32.68
43217;BME280;60511;42.686;23.300;2023-02-20T09:53:06;95360.19;;;22.56;32.84
43217;BME280;60511;42.686;23.300;2023-02-20T09:55:18;95318.59;;;22.36;32.42
43217;BME280;60511;42.686;23.300;2023-02-20T09:57:25;95363.66;;;22.57;32.83
43217;BME280;60511;42.686;23.300;2023-02-20T09:59:42;95354.19;;;22.51;32.70
43217;BME280;60511;42.686;23.300;2023-02-20T10:02:11;95360.63;;;22.58;32.66
43217;BME280;60511;42.686;23.300;2023-02-20T10:04:17;95315.34;;;22.22;33.91
43217;BME280;60511;42.686;23.300;2023-02-20T10:06:22;95365.38;;;22.61;33.41
43217;BME280;60511;42.686;23.300;2023-02-20T10:08:24;95332.41;;;22.35;33.19
43217;BME280;60511;42.686;23.300;2023-02-20T10:10:28;95377.47;;;22.55;33.00
43217;BME280;60511;42.686;23.300;2023-02-20T10:19:38;95310.56;;;22.27;32.45
43217;BME280;60511;42.686;23.300;2023-02-20T10:26:58;95345.63;;;22.49;31.91
43217;BME280;60511;42.686;23.300;2023-02-20T10:29:16;95309.56;;;22.32;31.85
43217;BME280;60511;42.686;23.300;2023-02-20T10:31:35;95341.47;;;22.51;31.54
43217;BME280;60511;42.686;23.300;2023-02-20T10:33:49;95329.66;;;22.43;31.56
43217;BME280;60511;42.686;23.300;2023-02-20T10:36:01;95329.59;;;22.52;31.66
43217;BME280;60511;42.686;23.300;2023-02-20T10:38:09;95240.88;;;21.87;31.40
43217;BME280;60511;42.686;23.300;2023-02-20T10:40:22;95316.75;;;22.49;31.66
43217;BME280;60511;42.686;23.300;2023-02-20T10:42:29;95325.09;;;22.56;31.23
43217;BME280;60511;42.686;23.300;2023-02-20T10:46:50;95249.63;;;22.05;31.27
43217;BME280;60511;42.686;23.300;2023-02-20T10:48:53;95293.25;;;22.29;31.39
43217;BME280;60511;42.686;23.300;2023-02-20T10:51:05;95322.72;;;22.55;31.38
43217;BME280;60511;42.686;23.300;2023-02-20T10:53:38;95329.13;;;22.50;30.92
43217;BME280;60511;42.686;23.300;2023-02-20T10:55:48;95334.97;;;22.52;31.46
43217;BME280;60511;42.686;23.300;2023-02-20T11:02:21;95343.41;;;22.51;31.55
43217;BME280;60511;42.686;23.300;2023-02-20T11:04:27;95241.78;;;21.92;31.30
43217;BME280;60511;42.686;23.300;2023-02-20T11:06:35;95332.59;;;22.51;31.82
43217;BME280;60511;42.686;23.300;2023-02-20T11:08:36;95265.88;;;22.18;31.53
43217;BME280;60511;42.686;23.300;2023-02-20T11:10:37;95265.56;;;22.19;31.56
43217;BME280;60511;42.686;23.300;2023-02-20T11:12:48;95322.09;;;22.58;31.77
43217;BME280;60511;42.686;23.300;2023-02-20T11:14:50;95268.66;;;22.30;31.60
43217;BME280;60511;42.686;23.300;2023-02-20T11:16:58;95328.25;;;22.58;31.84
43217;BME280;60511;42.686;23.300;2023-02-20T11:19:03;95320.16;;;22.58;31.26
43217;BME280;60511;42.686;23.300;2023-02-20T11:21:06;95322.19;;;22.61;31.92
43217;BME280;60511;42.686;23.300;2023-02-20T11:23:07;95316.81;;;22.61;31.76
43217;BME280;60511;42.686;23.300;2023-02-20T11:25:27;95315.38;;;22.64;31.91
43217;BME280;60511;42.686;23.300;2023-02-20T11:27:30;95327.25;;;22.63;31.79
43217;BME280;60511;42.686;23.300;2023-02-20T11:31:46;95274.91;;;22.43;31.81
43217;BME280;60511;42.686;23.300;2023-02-20T11:33:47;95302.94;;;22.51;31.32
43217;BME280;60511;42.686;23.300;2023-02-20T11:35:52;95308.06;;;22.64;31.04
43217;BME280;60511;42.686;23.300;2023-02-20T11:40:31;95292.66;;;22.65;32.13